Oxford, Indiana
Current Conditions -  °F | °C
As of 3:54 PM on Tuesday 25 Nov 2014 (Local Time) from KLAF Reporting Station
Overcast Overcast  
Wind Chill: 18°   Ceiling: 1700
Heat Index: 26°   Visibility: 10mi
Dew Point: 20°   Wind: 8mph
Humidity: 78%   Direction: 270°W
Pressure: 30.16"   Gusts: NA
Location:  40.52°N, 87.25°W
Report Text: KLAF 252054Z 27007KT 10SM OVC017 M03/M07 A3016 RMK AO2 SLP220 T10331067 51008
Loading
Personal Weather Stations






























Interactive Weather Map New forecast layout! Learn more

10-Day Weather Forecast

Advertisements
Track Severe Weather on mobile